sensor_id;sensor_type;location;lat;lon;timestamp;pressure;altitude;pressure_sealevel;temperature;humidity
64614;BME280;51025;37.772;-122.432;2022-11-15T00:01:08;101396.30;;;16.71;29.94
64614;BME280;51025;37.772;-122.432;2022-11-15T00:03:36;101400.66;;;16.69;30.09
64614;BME280;51025;37.772;-122.432;2022-11-15T00:06:05;101400.70;;;16.71;29.95
64614;BME280;51025;37.772;-122.432;2022-11-15T00:08:35;101400.49;;;16.73;30.03
64614;BME280;51025;37.772;-122.432;2022-11-15T00:11:03;101400.99;;;16.85;29.88
64614;BME280;51025;37.772;-122.432;2022-11-15T00:13:32;101401.07;;;17.49;29.78
64614;BME280;51025;37.772;-122.432;2022-11-15T00:16:01;101399.23;;;16.74;29.67
64614;BME280;51025;37.772;-122.432;2022-11-15T00:18:31;101399.36;;;17.09;29.47
64614;BME280;51025;37.772;-122.432;2022-11-15T00:21:05;101396.16;;;17.29;29.15
64614;BME280;51025;37.772;-122.432;2022-11-15T00:23:34;101395.82;;;17.00;29.33
64614;BME280;51025;37.772;-122.432;2022-11-15T00:26:02;101397.96;;;17.04;29.20
64614;BME280;51025;37.772;-122.432;2022-11-15T00:28:32;101399.66;;;17.23;29.05
64614;BME280;51025;37.772;-122.432;2022-11-15T00:31:02;101401.43;;;17.23;28.99
64614;BME280;51025;37.772;-122.432;2022-11-15T00:33:31;101403.58;;;17.23;28.91
64614;BME280;51025;37.772;-122.432;2022-11-15T00:36:02;101404.00;;;16.55;29.15
64614;BME280;51025;37.772;-122.432;2022-11-15T00:38:32;101403.84;;;17.18;28.96
64614;BME280;51025;37.772;-122.432;2022-11-15T00:41:02;101405.80;;;16.99;29.00
64614;BME280;51025;37.772;-122.432;2022-11-15T00:43:31;101408.29;;;17.03;29.05
64614;BME280;51025;37.772;-122.432;2022-11-15T00:46:00;101407.60;;;16.89;29.10
64614;BME280;51025;37.772;-122.432;2022-11-15T00:48:28;101405.32;;;17.04;28.91
64614;BME280;51025;37.772;-122.432;2022-11-15T00:50:56;101399.78;;;16.97;28.97
64614;BME280;51025;37.772;-122.432;2022-11-15T00:53:24;101397.22;;;16.77;29.20
64614;BME280;51025;37.772;-122.432;2022-11-15T00:55:53;101397.06;;;16.52;29.24
64614;BME280;51025;37.772;-122.432;2022-11-15T00:58:22;101396.50;;;16.81;29.22
64614;BME280;51025;37.772;-122.432;2022-11-15T01:00:50;101392.47;;;16.92;29.21
64614;BME280;51025;37.772;-122.432;2022-11-15T01:03:19;101391.32;;;16.93;29.23
64614;BME280;51025;37.772;-122.432;2022-11-15T01:05:48;101392.26;;;16.49;29.30
64614;BME280;51025;37.772;-122.432;2022-11-15T01:08:16;101394.80;;;16.85;29.36
64614;BME280;51025;37.772;-122.432;2022-11-15T01:10:45;101398.49;;;16.45;29.50
64614;BME280;51025;37.772;-122.432;2022-11-15T01:13:13;101398.11;;;16.80;29.53
64614;BME280;51025;37.772;-122.432;2022-11-15T01:15:41;101398.76;;;16.51;29.50
64614;BME280;51025;37.772;-122.432;2022-11-15T01:18:10;101400.95;;;16.74;29.70
64614;BME280;51025;37.772;-122.432;2022-11-15T01:20:40;101404.80;;;15.96;29.80
64614;BME280;51025;37.772;-122.432;2022-11-15T01:23:09;101404.02;;;16.76;29.85
64614;BME280;51025;37.772;-122.432;2022-11-15T01:25:38;101406.39;;;16.80;29.85
64614;BME280;51025;37.772;-122.432;2022-11-15T01:28:07;101404.55;;;16.45;29.75
64614;BME280;51025;37.772;-122.432;2022-11-15T01:30:37;101406.78;;;16.63;30.06
64614;BME280;51025;37.772;-122.432;2022-11-15T01:33:05;101409.28;;;16.61;30.03
64614;BME280;51025;37.772;-122.432;2022-11-15T01:35:38;101414.51;;;16.71;29.91
64614;BME280;51025;37.772;-122.432;2022-11-15T01:38:06;101417.85;;;16.53;30.08
64614;BME280;51025;37.772;-122.432;2022-11-15T01:40:36;101422.39;;;16.60;30.11
64614;BME280;51025;37.772;-122.432;2022-11-15T01:43:21;101426.65;;;16.54;30.21
64614;BME280;51025;37.772;-122.432;2022-11-15T01:45:53;101427.87;;;16.56;30.27
64614;BME280;51025;37.772;-122.432;2022-11-15T01:48:28;101425.12;;;16.66;30.25
64614;BME280;51025;37.772;-122.432;2022-11-15T01:51:02;101423.68;;;16.66;30.22
64614;BME280;51025;37.772;-122.432;2022-11-15T01:53:32;101420.63;;;16.81;30.21
64614;BME280;51025;37.772;-122.432;2022-11-15T01:56:04;101421.20;;;16.64;30.30
64614;BME280;51025;37.772;-122.432;2022-11-15T01:58:34;101423.31;;;16.55;30.35
64614;BME280;51025;37.772;-122.432;2022-11-15T02:01:04;101418.77;;;16.52;30.36
64614;BME280;51025;37.772;-122.432;2022-11-15T02:03:38;101421.53;;;16.60;30.34
64614;BME280;51025;37.772;-122.432;2022-11-15T02:06:08;101425.38;;;16.59;30.38
64614;BME280;51025;37.772;-122.432;2022-11-15T02:08:37;101428.38;;;16.48;30.46
64614;BME280;51025;37.772;-122.432;2022-11-15T02:11:08;101433.66;;;16.50;30.48
64614;BME280;51025;37.772;-122.432;2022-11-15T02:13:37;101439.80;;;16.21;30.67
64614;BME280;51025;37.772;-122.432;2022-11-15T02:16:12;101446.73;;;17.15;30.50
64614;BME280;51025;37.772;-122.432;2022-11-15T02:18:46;101450.85;;;16.95;30.37
64614;BME280;51025;37.772;-122.432;2022-11-15T02:21:23;101454.11;;;16.82;30.50
64614;BME280;51025;37.772;-122.432;2022-11-15T02:24:27;101458.02;;;16.33;30.51
64614;BME280;51025;37.772;-122.432;2022-11-15T02:27:29;101463.61;;;16.26;30.55
64614;BME280;51025;37.772;-122.432;2022-11-15T02:30:21;101469.07;;;16.46;30.40
64614;BME280;51025;37.772;-122.432;2022-11-15T02:32:52;101472.29;;;16.23;30.57
64614;BME280;51025;37.772;-122.432;2022-11-15T02:35:29;101475.36;;;16.15;30.63
64614;BME280;51025;37.772;-122.432;2022-11-15T02:38:07;101475.75;;;16.33;30.42
64614;BME280;51025;37.772;-122.432;2022-11-15T02:40:45;101476.01;;;15.84;30.58
64614;BME280;51025;37.772;-122.432;2022-11-15T02:43:22;101478.65;;;16.47;30.29
64614;BME280;51025;37.772;-122.432;2022-11-15T02:45:57;101478.79;;;17.14;30.32
64614;BME280;51025;37.772;-122.432;2022-11-15T02:48:30;101482.75;;;16.81;30.57
64614;BME280;51025;37.772;-122.432;2022-11-15T02:51:00;101483.43;;;16.21;30.31
64614;BME280;51025;37.772;-122.432;2022-11-15T02:53:29;101485.19;;;17.09;30.21
64614;BME280;51025;37.772;-122.432;2022-11-15T02:55:58;101488.94;;;16.24;30.21
64614;BME280;51025;37.772;-122.432;2022-11-15T02:58:38;101485.86;;;15.98;30.34
64614;BME280;51025;37.772;-122.432;2022-11-15T03:01:20;101488.78;;;16.78;29.92
64614;BME280;51025;37.772;-122.432;2022-11-15T03:04:01;101489.14;;;16.97;29.71
64614;BME280;51025;37.772;-122.432;2022-11-15T03:06:36;101488.12;;;16.82;30.17
64614;BME280;51025;37.772;-122.432;2022-11-15T03:09:12;101485.27;;;15.92;30.26
64614;BME280;51025;37.772;-122.432;2022-11-15T03:11:48;101482.86;;;16.06;29.99
64614;BME280;51025;37.772;-122.432;2022-11-15T03:14:23;101479.94;;;16.51;30.08
64614;BME280;51025;37.772;-122.432;2022-11-15T03:17:01;101480.76;;;16.12;30.04
64614;BME280;51025;37.772;-122.432;2022-11-15T03:19:35;101482.99;;;15.87;30.16
64614;BME280;51025;37.772;-122.432;2022-11-15T03:22:11;101482.66;;;15.91;30.10
64614;BME280;51025;37.772;-122.432;2022-11-15T03:24:43;101482.91;;;15.86;30.12
64614;BME280;51025;37.772;-122.432;2022-11-15T03:27:15;101482.94;;;16.67;30.09
64614;BME280;51025;37.772;-122.432;2022-11-15T03:29:47;101483.35;;;16.25;30.08
64614;BME280;51025;37.772;-122.432;2022-11-15T03:32:20;101487.00;;;16.33;29.95
64614;BME280;51025;37.772;-122.432;2022-11-15T03:34:55;101485.32;;;16.30;29.96
64614;BME280;51025;37.772;-122.432;2022-11-15T03:37:30;101488.92;;;16.05;30.17
64614;BME280;51025;37.772;-122.432;2022-11-15T03:40:01;101495.33;;;16.50;30.01
64614;BME280;51025;37.772;-122.432;2022-11-15T03:42:34;101496.36;;;16.75;29.87
64614;BME280;51025;37.772;-122.432;2022-11-15T03:45:13;101501.39;;;16.00;30.19
64614;BME280;51025;37.772;-122.432;2022-11-15T03:47:47;101504.85;;;15.75;29.97
64614;BME280;51025;37.772;-122.432;2022-11-15T03:50:19;101503.67;;;16.62;29.87
64614;BME280;51025;37.772;-122.432;2022-11-15T03:52:50;101503.68;;;15.84;29.85
64614;BME280;51025;37.772;-122.432;2022-11-15T03:55:20;101504.11;;;16.77;29.65
64614;BME280;51025;37.772;-122.432;2022-11-15T03:57:51;101505.55;;;16.48;29.60
64614;BME280;51025;37.772;-122.432;2022-11-15T04:00:20;101510.13;;;16.46;29.86
64614;BME280;51025;37.772;-122.432;2022-11-15T04:02:49;101510.18;;;16.21;29.72
64614;BME280;51025;37.772;-122.432;2022-11-15T04:05:17;101511.05;;;16.53;29.69
64614;BME280;51025;37.772;-122.432;2022-11-15T04:07:46;101514.77;;;16.21;29.66
64614;BME280;51025;37.772;-122.432;2022-11-15T04:10:15;101516.24;;;15.61;29.92
64614;BME280;51025;37.772;-122.432;2022-11-15T04:12:45;101517.51;;;16.35;29.80
64614;BME280;51025;37.772;-122.432;2022-11-15T04:15:15;101521.34;;;16.52;29.71
64614;BME280;51025;37.772;-122.432;2022-11-15T04:17:46;101525.19;;;16.19;29.63
64614;BME280;51025;37.772;-122.432;2022-11-15T04:20:16;101525.55;;;16.00;29.84
64614;BME280;51025;37.772;-122.432;2022-11-15T04:22:45;101528.52;;;16.10;29.68
64614;BME280;51025;37.772;-122.432;2022-11-15T04:25:13;101530.76;;;16.28;29.81
64614;BME280;51025;37.772;-122.432;2022-11-15T04:27:42;101532.30;;;16.09;29.61
64614;BME280;51025;37.772;-122.432;2022-11-15T04:30:11;101539.22;;;15.74;29.91
64614;BME280;51025;37.772;-122.432;2022-11-15T04:32:40;101537.20;;;15.64;29.58
64614;BME280;51025;37.772;-122.432;2022-11-15T04:35:08;101539.77;;;15.88;29.75
64614;BME280;51025;37.772;-122.432;2022-11-15T04:37:37;101540.06;;;15.94;29.66
64614;BME280;51025;37.772;-122.432;2022-11-15T04:40:07;101540.90;;;16.04;29.93
64614;BME280;51025;37.772;-122.432;2022-11-15T04:42:36;101540.69;;;16.36;29.64
64614;BME280;51025;37.772;-122.432;2022-11-15T04:45:04;101546.23;;;16.31;29.59
64614;BME280;51025;37.772;-122.432;2022-11-15T04:47:33;101548.08;;;16.07;29.81
64614;BME280;51025;37.772;-122.432;2022-11-15T04:50:01;101548.55;;;16.32;29.70
64614;BME280;51025;37.772;-122.432;2022-11-15T04:52:30;101548.96;;;15.89;29.61
64614;BME280;51025;37.772;-122.432;2022-11-15T04:54:58;101554.76;;;16.31;29.57
64614;BME280;51025;37.772;-122.432;2022-11-15T04:57:26;101552.82;;;16.24;29.67
64614;BME280;51025;37.772;-122.432;2022-11-15T04:59:54;101560.08;;;16.43;29.52
64614;BME280;51025;37.772;-122.432;2022-11-15T05:02:23;101561.65;;;16.21;29.57
64614;BME280;51025;37.772;-122.432;2022-11-15T05:04:51;101561.56;;;15.87;29.65
64614;BME280;51025;37.772;-122.432;2022-11-15T05:07:20;101563.03;;;15.79;29.68
64614;BME280;51025;37.772;-122.432;2022-11-15T05:09:48;101565.66;;;15.75;29.97
64614;BME280;51025;37.772;-122.432;2022-11-15T05:12:17;101566.13;;;16.12;29.70
64614;BME280;51025;37.772;-122.432;2022-11-15T05:14:46;101566.27;;;15.36;29.66
64614;BME280;51025;37.772;-122.432;2022-11-15T05:17:14;101569.20;;;15.76;29.92
64614;BME280;51025;37.772;-122.432;2022-11-15T05:19:42;101570.68;;;15.96;29.77
64614;BME280;51025;37.772;-122.432;2022-11-15T05:22:11;101571.86;;;15.90;29.48
64614;BME280;51025;37.772;-122.432;2022-11-15T05:24:39;101577.92;;;15.79;29.64
64614;BME280;51025;37.772;-122.432;2022-11-15T05:27:07;101576.82;;;16.02;29.65
64614;BME280;51025;37.772;-122.432;2022-11-15T05:29:36;101576.07;;;16.36;29.73
64614;BME280;51025;37.772;-122.432;2022-11-15T05:32:06;101577.82;;;16.33;29.70
64614;BME280;51025;37.772;-122.432;2022-11-15T05:34:37;101577.87;;;15.40;29.53
64614;BME280;51025;37.772;-122.432;2022-11-15T05:37:06;101579.39;;;15.95;29.70
64614;BME280;51025;37.772;-122.432;2022-11-15T05:39:36;101581.49;;;15.96;29.68
64614;BME280;51025;37.772;-122.432;2022-11-15T05:42:07;101582.15;;;15.90;29.75
64614;BME280;51025;37.772;-122.432;2022-11-15T05:44:40;101579.85;;;15.01;29.77
64614;BME280;51025;37.772;-122.432;2022-11-15T05:47:12;101578.68;;;16.36;29.57
64614;BME280;51025;37.772;-122.432;2022-11-15T05:49:43;101581.70;;;15.59;29.69
64614;BME280;51025;37.772;-122.432;2022-11-15T05:52:16;101584.69;;;15.84;29.75
64614;BME280;51025;37.772;-122.432;2022-11-15T05:54:45;101585.09;;;15.49;29.72
64614;BME280;51025;37.772;-122.432;2022-11-15T05:57:13;101588.07;;;15.79;29.77
64614;BME280;51025;37.772;-122.432;2022-11-15T05:59:42;101590.42;;;14.79;29.94
64614;BME280;51025;37.772;-122.432;2022-11-15T06:02:12;101589.52;;;15.90;29.66
64614;BME280;51025;37.772;-122.432;2022-11-15T06:04:40;101589.98;;;15.32;29.53
64614;BME280;51025;37.772;-122.432;2022-11-15T06:07:08;101589.78;;;16.06;29.49
64614;BME280;51025;37.772;-122.432;2022-11-15T06:09:37;101589.44;;;15.97;29.59
64614;BME280;51025;37.772;-122.432;2022-11-15T06:12:05;101590.58;;;15.85;29.73
64614;BME280;51025;37.772;-122.432;2022-11-15T06:14:35;101591.72;;;15.94;29.66
64614;BME280;51025;37.772;-122.432;2022-11-15T06:17:03;101589.53;;;15.90;29.77
64614;BME280;51025;37.772;-122.432;2022-11-15T06:19:31;101593.82;;;16.20;29.76
64614;BME280;51025;37.772;-122.432;2022-11-15T06:21:59;101596.58;;;16.28;29.39
64614;BME280;51025;37.772;-122.432;2022-11-15T06:24:28;101596.63;;;16.02;29.90
64614;BME280;51025;37.772;-122.432;2022-11-15T06:26:56;101595.22;;;16.08;29.63
64614;BME280;51025;37.772;-122.432;2022-11-15T06:29:25;101596.16;;;16.02;29.74
64614;BME280;51025;37.772;-122.432;2022-11-15T06:31:53;101596.08;;;15.89;29.82
64614;BME280;51025;37.772;-122.432;2022-11-15T06:34:21;101596.83;;;15.61;29.74
64614;BME280;51025;37.772;-122.432;2022-11-15T06:36:49;101596.09;;;16.31;29.42
64614;BME280;51025;37.772;-122.432;2022-11-15T06:39:17;101595.46;;;15.30;29.67
64614;BME280;51025;37.772;-122.432;2022-11-15T06:41:45;101596.12;;;16.04;29.35
64614;BME280;51025;37.772;-122.432;2022-11-15T06:44:14;101591.32;;;16.22;29.43
64614;BME280;51025;37.772;-122.432;2022-11-15T06:46:42;101590.36;;;15.14;29.71
64614;BME280;51025;37.772;-122.432;2022-11-15T06:49:10;101588.60;;;16.10;29.59
64614;BME280;51025;37.772;-122.432;2022-11-15T06:51:38;101589.06;;;15.34;29.50
64614;BME280;51025;37.772;-122.432;2022-11-15T06:54:06;101587.09;;;16.04;29.62
64614;BME280;51025;37.772;-122.432;2022-11-15T06:56:35;101589.76;;;15.93;29.67
64614;BME280;51025;37.772;-122.432;2022-11-15T06:59:04;101589.26;;;15.88;29.66
64614;BME280;51025;37.772;-122.432;2022-11-15T07:01:33;101587.08;;;15.55;30.11
64614;BME280;51025;37.772;-122.432;2022-11-15T07:04:01;101586.78;;;16.02;29.68
64614;BME280;51025;37.772;-122.432;2022-11-15T07:06:29;101587.50;;;15.81;30.11
64614;BME280;51025;37.772;-122.432;2022-11-15T07:08:58;101587.22;;;16.04;29.98
64614;BME280;51025;37.772;-122.432;2022-11-15T07:11:26;101590.49;;;16.13;29.85
64614;BME280;51025;37.772;-122.432;2022-11-15T07:13:55;101591.27;;;16.17;29.84
64614;BME280;51025;37.772;-122.432;2022-11-15T07:16:23;101589.66;;;16.20;29.76
64614;BME280;51025;37.772;-122.432;2022-11-15T07:18:51;101590.94;;;15.83;29.74
64614;BME280;51025;37.772;-122.432;2022-11-15T07:21:19;101593.08;;;16.04;29.85
64614;BME280;51025;37.772;-122.432;2022-11-15T07:23:47;101592.99;;;15.37;29.77
64614;BME280;51025;37.772;-122.432;2022-11-15T07:26:17;101594.41;;;15.67;29.47
64614;BME280;51025;37.772;-122.432;2022-11-15T07:28:45;101594.91;;;15.80;29.78
64614;BME280;51025;37.772;-122.432;2022-11-15T07:31:13;101596.08;;;16.09;29.78
64614;BME280;51025;37.772;-122.432;2022-11-15T07:33:42;101595.39;;;16.08;29.41
64614;BME280;51025;37.772;-122.432;2022-11-15T07:36:11;101594.63;;;16.19;29.59
64614;BME280;51025;37.772;-122.432;2022-11-15T07:38:39;101593.10;;;15.35;29.29
64614;BME280;51025;37.772;-122.432;2022-11-15T07:41:08;101593.40;;;16.04;29.41
64614;BME280;51025;37.772;-122.432;2022-11-15T07:43:37;101591.33;;;15.83;29.57
64614;BME280;51025;37.772;-122.432;2022-11-15T07:46:07;101592.43;;;15.45;29.51
64614;BME280;51025;37.772;-122.432;2022-11-15T07:48:37;101587.41;;;16.26;29.45
64614;BME280;51025;37.772;-122.432;2022-11-15T07:51:05;101584.72;;;15.99;29.34
64614;BME280;51025;37.772;-122.432;2022-11-15T07:53:34;101584.53;;;16.06;29.32
64614;BME280;51025;37.772;-122.432;2022-11-15T07:56:05;101584.06;;;16.36;29.28
64614;BME280;51025;37.772;-122.432;2022-11-15T07:58:33;101586.13;;;15.85;29.41
64614;BME280;51025;37.772;-122.432;2022-11-15T08:01:04;101585.22;;;15.18;29.33
64614;BME280;51025;37.772;-122.432;2022-11-15T08:03:33;101585.81;;;15.82;29.42
64614;BME280;51025;37.772;-122.432;2022-11-15T08:06:02;101585.35;;;15.98;29.53
64614;BME280;51025;37.772;-122.432;2022-11-15T08:08:30;101583.39;;;15.52;29.63
64614;BME280;51025;37.772;-122.432;2022-11-15T08:10:59;101582.91;;;15.97;29.58
64614;BME280;51025;37.772;-122.432;2022-11-15T08:13:27;101583.41;;;16.22;29.60
64614;BME280;51025;37.772;-122.432;2022-11-15T08:15:58;101584.74;;;15.59;29.88
64614;BME280;51025;37.772;-122.432;2022-11-15T08:18:27;101585.48;;;15.64;29.79
64614;BME280;51025;37.772;-122.432;2022-11-15T08:20:59;101586.51;;;15.87;29.60
64614;BME280;51025;37.772;-122.432;2022-11-15T08:23:27;101590.18;;;15.53;29.86
64614;BME280;51025;37.772;-122.432;2022-11-15T08:26:01;101591.69;;;15.78;29.61
64614;BME280;51025;37.772;-122.432;2022-11-15T08:28:30;101586.95;;;15.69;29.67
64614;BME280;51025;37.772;-122.432;2022-11-15T08:30:58;101587.37;;;15.43;29.59
64614;BME280;51025;37.772;-122.432;2022-11-15T08:33:28;101586.44;;;15.65;29.67
64614;BME280;51025;37.772;-122.432;2022-11-15T08:35:57;101585.33;;;15.71;29.61
64614;BME280;51025;37.772;-122.432;2022-11-15T08:38:26;101585.17;;;15.47;29.51
64614;BME280;51025;37.772;-122.432;2022-11-15T08:41:01;101586.42;;;15.79;29.53
64614;BME280;51025;37.772;-122.432;2022-11-15T08:43:30;101591.49;;;15.64;29.70
64614;BME280;51025;37.772;-122.432;2022-11-15T08:45:59;101593.27;;;15.45;29.84
64614;BME280;51025;37.772;-122.432;2022-11-15T08:48:28;101597.55;;;15.49;29.77
64614;BME280;51025;37.772;-122.432;2022-11-15T08:50:57;101600.30;;;15.44;29.48
64614;BME280;51025;37.772;-122.432;2022-11-15T08:53:26;101602.14;;;15.74;29.54
64614;BME280;51025;37.772;-122.432;2022-11-15T08:55:55;101602.72;;;15.76;29.49
64614;BME280;51025;37.772;-122.432;2022-11-15T08:58:24;101604.85;;;15.45;29.74
64614;BME280;51025;37.772;-122.432;2022-11-15T09:00:52;101605.04;;;15.63;29.59
64614;BME280;51025;37.772;-122.432;2022-11-15T09:03:21;101601.19;;;15.81;29.73
64614;BME280;51025;37.772;-122.432;2022-11-15T09:05:53;101599.94;;;15.20;29.69
64614;BME280;51025;37.772;-122.432;2022-11-15T09:08:22;101599.71;;;15.68;29.49
64614;BME280;51025;37.772;-122.432;2022-11-15T09:10:51;101600.81;;;14.77;29.64
64614;BME280;51025;37.772;-122.432;2022-11-15T09:13:19;101600.57;;;15.62;29.52
64614;BME280;51025;37.772;-122.432;2022-11-15T09:15:47;101594.82;;;15.80;29.36
64614;BME280;51025;37.772;-122.432;2022-11-15T09:18:16;101593.58;;;15.83;29.65
64614;BME280;51025;37.772;-122.432;2022-11-15T09:20:45;101597.24;;;15.62;29.53
64614;BME280;51025;37.772;-122.432;2022-11-15T09:23:14;101599.51;;;15.55;29.56
64614;BME280;51025;37.772;-122.432;2022-11-15T09:25:43;101602.73;;;14.62;29.73
64614;BME280;51025;37.772;-122.432;2022-11-15T09:28:10;101603.68;;;15.12;29.61
64614;BME280;51025;37.772;-122.432;2022-11-15T09:30:39;101610.13;;;15.25;29.47
64614;BME280;51025;37.772;-122.432;2022-11-15T09:33:09;101610.07;;;15.58;29.50
64614;BME280;51025;37.772;-122.432;2022-11-15T09:35:38;101608.05;;;14.69;29.62
64614;BME280;51025;37.772;-122.432;2022-11-15T09:38:07;101612.52;;;15.59;29.45
64614;BME280;51025;37.772;-122.432;2022-11-15T09:40:37;101611.72;;;15.47;29.55
64614;BME280;51025;37.772;-122.432;2022-11-15T09:43:32;101614.96;;;15.66;29.38
64614;BME280;51025;37.772;-122.432;2022-11-15T09:46:11;101617.44;;;15.19;29.48
64614;BME280;51025;37.772;-122.432;2022-11-15T09:48:53;101622.42;;;14.51;29.75
64614;BME280;51025;37.772;-122.432;2022-11-15T09:51:31;101620.60;;;15.44;29.60
64614;BME280;51025;37.772;-122.432;2022-11-15T09:54:09;101616.92;;;15.38;29.67
64614;BME280;51025;37.772;-122.432;2022-11-15T09:56:42;101612.64;;;15.09;29.61
64614;BME280;51025;37.772;-122.432;2022-11-15T10:00:28;101608.18;;;15.49;29.56
64614;BME280;51025;37.772;-122.432;2022-11-15T10:03:09;101608.39;;;15.45;29.63
64614;BME280;51025;37.772;-122.432;2022-11-15T10:05:42;101605.95;;;15.48;29.57
64614;BME280;51025;37.772;-122.432;2022-11-15T10:08:25;101609.36;;;15.36;29.40
64614;BME280;51025;37.772;-122.432;2022-11-15T10:10:57;101606.25;;;15.68;29.38
64614;BME280;51025;37.772;-122.432;2022-11-15T10:13:30;101607.61;;;15.68;29.73
64614;BME280;51025;37.772;-122.432;2022-11-15T10:16:09;101611.98;;;15.47;29.60
64614;BME280;51025;37.772;-122.432;2022-11-15T10:18:52;101618.26;;;15.32;29.42
64614;BME280;51025;37.772;-122.432;2022-11-15T10:21:40;101616.66;;;15.34;29.67
64614;BME280;51025;37.772;-122.432;2022-11-15T10:24:19;101614.62;;;15.41;29.62
64614;BME280;51025;37.772;-122.432;2022-11-15T10:26:49;101616.75;;;15.51;29.54
64614;BME280;51025;37.772;-122.432;2022-11-15T10:29:19;101624.74;;;15.25;29.78
64614;BME280;51025;37.772;-122.432;2022-11-15T10:31:48;101627.50;;;14.87;29.82
64614;BME280;51025;37.772;-122.432;2022-11-15T10:34:19;101622.81;;;15.29;29.74
64614;BME280;51025;37.772;-122.432;2022-11-15T10:36:55;101620.20;;;15.19;29.85
64614;BME280;51025;37.772;-122.432;2022-11-15T10:39:24;101620.61;;;16.08;29.34
64614;BME280;51025;37.772;-122.432;2022-11-15T10:41:54;101623.89;;;15.40;29.60
64614;BME280;51025;37.772;-122.432;2022-11-15T10:44:25;101624.53;;;15.62;29.40
64614;BME280;51025;37.772;-122.432;2022-11-15T10:47:28;101620.14;;;15.67;29.37
64614;BME280;51025;37.772;-122.432;2022-11-15T10:49:59;101628.55;;;15.29;29.38
64614;BME280;51025;37.772;-122.432;2022-11-15T10:52:30;101628.78;;;15.77;29.59
64614;BME280;51025;37.772;-122.432;2022-11-15T10:55:04;101632.74;;;15.02;29.63
64614;BME280;51025;37.772;-122.432;2022-11-15T10:57:37;101634.30;;;15.25;29.75
64614;BME280;51025;37.772;-122.432;2022-11-15T11:00:26;101637.16;;;15.41;29.54
64614;BME280;51025;37.772;-122.432;2022-11-15T11:02:59;101634.86;;;15.22;29.73
64614;BME280;51025;37.772;-122.432;2022-11-15T11:05:30;101641.30;;;14.83;29.79
64614;BME280;51025;37.772;-122.432;2022-11-15T11:08:02;101642.78;;;15.25;29.71
64614;BME280;51025;37.772;-122.432;2022-11-15T11:10:30;101646.06;;;15.31;29.65
64614;BME280;51025;37.772;-122.432;2022-11-15T11:13:13;101648.31;;;15.29;29.64
64614;BME280;51025;37.772;-122.432;2022-11-15T11:15:45;101647.16;;;14.98;29.61
64614;BME280;51025;37.772;-122.432;2022-11-15T11:18:20;101647.36;;;15.47;29.46
64614;BME280;51025;37.772;-122.432;2022-11-15T11:20:56;101650.93;;;15.16;29.72
64614;BME280;51025;37.772;-122.432;2022-11-15T11:23:38;101655.90;;;15.42;29.49
64614;BME280;51025;37.772;-122.432;2022-11-15T11:26:23;101655.43;;;15.72;29.50
64614;BME280;51025;37.772;-122.432;2022-11-15T11:29:07;101653.36;;;15.74;29.45
64614;BME280;51025;37.772;-122.432;2022-11-15T11:31:45;101658.92;;;14.62;29.41
64614;BME280;51025;37.772;-122.432;2022-11-15T11:34:26;101662.69;;;15.53;29.31
64614;BME280;51025;37.772;-122.432;2022-11-15T11:37:04;101662.55;;;15.32;29.47
64614;BME280;51025;37.772;-122.432;2022-11-15T11:39:47;101661.12;;;14.86;29.54
64614;BME280;51025;37.772;-122.432;2022-11-15T11:42:23;101664.07;;;15.05;29.70
64614;BME280;51025;37.772;-122.432;2022-11-15T11:45:01;101663.68;;;15.21;29.52
64614;BME280;51025;37.772;-122.432;2022-11-15T11:47:34;101667.10;;;15.47;29.58
64614;BME280;51025;37.772;-122.432;2022-11-15T11:50:13;101668.63;;;15.01;29.66
64614;BME280;51025;37.772;-122.432;2022-11-15T11:52:57;101669.99;;;15.17;29.48
64614;BME280;51025;37.772;-122.432;2022-11-15T11:55:32;101673.57;;;15.25;29.40
64614;BME280;51025;37.772;-122.432;2022-11-15T11:58:09;101672.28;;;15.72;29.26
64614;BME280;51025;37.772;-122.432;2022-11-15T12:00:45;101668.33;;;14.42;29.42
64614;BME280;51025;37.772;-122.432;2022-11-15T12:03:22;101668.13;;;15.39;29.53
64614;BME280;51025;37.772;-122.432;2022-11-15T12:05:56;101668.93;;;15.16;29.45
64614;BME280;51025;37.772;-122.432;2022-11-15T12:08:33;101674.17;;;15.76;29.20
64614;BME280;51025;37.772;-122.432;2022-11-15T12:11:09;101674.16;;;15.17;29.37
64614;BME280;51025;37.772;-122.432;2022-11-15T12:13:41;101678.95;;;15.08;29.42
64614;BME280;51025;37.772;-122.432;2022-11-15T12:16:14;101675.94;;;15.59;29.25
64614;BME280;51025;37.772;-122.432;2022-11-15T12:18:48;101678.45;;;15.08;29.41
64614;BME280;51025;37.772;-122.432;2022-11-15T12:21:26;101675.80;;;15.13;29.34
64614;BME280;51025;37.772;-122.432;2022-11-15T12:24:03;101674.01;;;15.30;29.15
64614;BME280;51025;37.772;-122.432;2022-11-15T12:26:37;101671.33;;;15.03;29.44
64614;BME280;51025;37.772;-122.432;2022-11-15T12:29:15;101668.43;;;15.37;29.39
64614;BME280;51025;37.772;-122.432;2022-11-15T12:31:48;101671.69;;;15.41;29.34
64614;BME280;51025;37.772;-122.432;2022-11-15T12:34:37;101675.91;;;15.02;29.41
64614;BME280;51025;37.772;-122.432;2022-11-15T12:37:51;101678.26;;;15.44;29.29
64614;BME280;51025;37.772;-122.432;2022-11-15T12:40:26;101678.68;;;15.13;29.26
64614;BME280;51025;37.772;-122.432;2022-11-15T12:44:13;101680.67;;;15.52;29.57
64614;BME280;51025;37.772;-122.432;2022-11-15T12:47:46;101679.41;;;15.27;29.12